createdAt,value
2023-11-17T00:00:09.298Z,13.40
2023-11-17T00:02:37.349Z,13.53
2023-11-17T00:05:05.482Z,14.27
2023-11-17T00:07:32.912Z,13.57
2023-11-17T00:10:00.463Z,14.37
2023-11-17T00:12:27.947Z,10.20
2023-11-17T00:14:55.453Z,13.43
2023-11-17T00:17:23.524Z,13.53
2023-11-17T00:19:52.585Z,14.63
2023-11-17T00:22:21.703Z,13.67
2023-11-17T00:24:49.451Z,12.20
2023-11-17T00:27:17.996Z,16.43
2023-11-17T00:29:45.849Z,13.90
2023-11-17T00:32:13.235Z,13.37
2023-11-17T00:34:40.827Z,12.57
2023-11-17T00:37:09.110Z,9.80
2023-11-17T00:39:38.537Z,13.27
2023-11-17T00:42:06.304Z,12.33
2023-11-17T00:44:34.307Z,13.17
2023-11-17T00:47:05.429Z,13.37
2023-11-17T00:49:33.141Z,13.27
2023-11-17T00:52:02.202Z,12.63
2023-11-17T00:54:32.158Z,11.27
2023-11-17T00:56:59.548Z,13.63
2023-11-17T00:59:26.993Z,10.87
2023-11-17T01:01:54.743Z,11.13
2023-11-17T01:04:22.693Z,11.83
2023-11-17T01:06:55.648Z,12.53
2023-11-17T01:09:25.135Z,11.17
2023-11-17T01:11:53.513Z,10.80
2023-11-17T01:14:21.184Z,11.27
2023-11-17T01:16:49.806Z,12.37
2023-11-17T01:19:17.345Z,10.17
2023-11-17T01:21:44.985Z,9.97
2023-11-17T01:24:12.487Z,15.00
2023-11-17T01:26:39.906Z,9.63
2023-11-17T01:29:07.347Z,8.47
2023-11-17T01:31:34.720Z,10.93
2023-11-17T01:34:02.258Z,8.17
2023-11-17T01:36:29.725Z,9.23
2023-11-17T01:38:58.207Z,13.70
2023-11-17T01:41:25.673Z,9.90
2023-11-17T01:43:53.217Z,7.70
2023-11-17T01:46:22.702Z,10.73
2023-11-17T01:48:50.650Z,8.73
2023-11-17T01:51:18.090Z,9.17
2023-11-17T01:53:46.156Z,10.77
2023-11-17T01:56:13.821Z,10.20
2023-11-17T01:58:41.281Z,9.67
2023-11-17T02:01:11.694Z,11.87
2023-11-17T02:03:41.502Z,8.37
2023-11-17T02:06:24.367Z,11.70
2023-11-17T02:09:03.945Z,10.77
2023-11-17T02:11:38.953Z,9.93
2023-11-17T02:14:19.771Z,10.73
2023-11-17T02:16:52.019Z,9.33
2023-11-17T02:19:30.057Z,10.43
2023-11-17T02:22:04.022Z,9.70
2023-11-17T02:24:37.746Z,9.07
2023-11-17T02:27:51.614Z,10.33
2023-11-17T02:30:21.120Z,9.90
2023-11-17T02:32:51.439Z,10.13
2023-11-17T02:35:19.190Z,10.60
2023-11-17T02:37:51.444Z,9.73
2023-11-17T02:40:23.791Z,12.80
2023-11-17T02:42:54.535Z,11.83
2023-11-17T02:45:22.374Z,13.70
2023-11-17T02:47:50.567Z,11.83
2023-11-17T02:50:32.391Z,11.57
2023-11-17T02:53:21.362Z,11.60
2023-11-17T02:55:49.326Z,13.43
2023-11-17T02:58:18.365Z,13.37
2023-11-17T03:00:53.139Z,16.40
2023-11-17T03:03:24.416Z,14.30
2023-11-17T03:06:00.364Z,13.77
2023-11-17T03:08:28.065Z,15.53
2023-11-17T03:11:02.246Z,12.70
2023-11-17T03:13:33.162Z,12.53
2023-11-17T03:16:00.985Z,14.37
2023-11-17T03:18:28.908Z,14.57
2023-11-17T03:21:03.117Z,16.70
2023-11-17T03:23:33.959Z,20.73
2023-11-17T03:26:01.829Z,13.83
2023-11-17T03:28:30.191Z,14.23
2023-11-17T03:30:57.651Z,14.33
2023-11-17T03:33:25.070Z,15.90
2023-11-17T03:35:57.008Z,15.27
2023-11-17T03:38:24.486Z,14.80
2023-11-17T03:40:51.933Z,13.87
2023-11-17T03:43:19.500Z,15.60
2023-11-17T03:45:50.865Z,13.77
2023-11-17T03:48:18.581Z,15.33
2023-11-17T03:50:46.000Z,17.90
2023-11-17T03:53:14.019Z,16.40
2023-11-17T03:55:43.254Z,16.03
2023-11-17T03:58:10.736Z,14.20
2023-11-17T04:00:38.693Z,15.27
2023-11-17T04:03:06.352Z,14.53
2023-11-17T04:05:34.289Z,16.77
2023-11-17T04:08:01.844Z,16.63
2023-11-17T04:10:29.402Z,20.23
2023-11-17T04:12:56.837Z,15.17
2023-11-17T04:15:24.357Z,18.90
2023-11-17T04:17:51.779Z,15.87
2023-11-17T04:20:20.382Z,19.87
2023-11-17T04:22:47.819Z,17.47
2023-11-17T04:25:15.286Z,19.70
2023-11-17T04:27:44.015Z,17.37
2023-11-17T04:30:12.902Z,17.07
2023-11-17T04:32:40.927Z,15.40
2023-11-17T04:35:09.698Z,18.33
2023-11-17T04:37:39.494Z,17.07
2023-11-17T04:40:11.792Z,15.77
2023-11-17T04:42:40.564Z,13.63
2023-11-17T04:45:10.156Z,16.43
2023-11-17T04:47:38.230Z,15.47
2023-11-17T04:50:10.106Z,14.53
2023-11-17T04:52:37.685Z,14.97
2023-11-17T04:55:07.157Z,12.87
2023-11-17T04:57:38.329Z,15.17
2023-11-17T05:00:06.864Z,12.87
2023-11-17T05:02:34.631Z,13.93
2023-11-17T05:05:02.671Z,13.67
2023-11-17T05:07:30.360Z,15.00
2023-11-17T05:09:58.072Z,15.33
2023-11-17T05:12:25.449Z,18.13
2023-11-17T05:14:54.151Z,11.60
2023-11-17T05:17:23.547Z,15.17
2023-11-17T05:19:51.049Z,13.83
2023-11-17T05:22:21.216Z,14.17
2023-11-17T05:24:50.124Z,11.90
2023-11-17T05:27:17.996Z,12.80
2023-11-17T05:29:45.553Z,11.47
2023-11-17T05:32:12.990Z,14.37
2023-11-17T05:34:40.480Z,13.43
2023-11-17T05:37:07.973Z,10.37
2023-11-17T05:39:36.464Z,13.90
2023-11-17T05:42:04.373Z,12.50
2023-11-17T05:44:32.002Z,16.63
2023-11-17T05:47:00.289Z,13.03
2023-11-17T05:49:28.027Z,14.13
2023-11-17T05:51:56.111Z,11.73
2023-11-17T05:54:23.554Z,11.30
2023-11-17T05:56:51.012Z,11.40
2023-11-17T05:59:19.510Z,12.53
2023-11-17T06:01:47.492Z,13.43
2023-11-17T06:04:15.087Z,11.43
2023-11-17T06:06:42.631Z,14.73
2023-11-17T06:09:13.652Z,13.00
2023-11-17T06:11:41.518Z,13.13
2023-11-17T06:14:09.352Z,17.63
2023-11-17T06:16:36.957Z,17.00
2023-11-17T06:19:05.008Z,17.13
2023-11-17T06:21:33.449Z,17.03
2023-11-17T06:24:00.951Z,16.70
2023-11-17T06:26:29.214Z,18.10
2023-11-17T06:29:02.596Z,18.53
2023-11-17T06:31:34.881Z,19.20
2023-11-17T06:34:02.899Z,20.03
2023-11-17T06:36:32.036Z,19.57
2023-11-17T06:39:00.215Z,19.17
2023-11-17T06:41:31.787Z,19.30
2023-11-17T06:44:00.245Z,17.57
2023-11-17T06:46:28.357Z,19.30
2023-11-17T06:48:56.261Z,24.20
2023-11-17T06:51:25.664Z,21.53
2023-11-17T06:53:53.484Z,20.30
2023-11-17T06:56:22.286Z,22.17
2023-11-17T06:58:50.312Z,25.53
2023-11-17T07:01:21.316Z,19.40
2023-11-17T07:03:51.231Z,23.10
2023-11-17T07:06:20.143Z,25.60
2023-11-17T07:08:48.354Z,23.20
2023-11-17T07:11:16.999Z,22.20
2023-11-17T07:13:53.674Z,20.23
2023-11-17T07:16:22.044Z,17.93
2023-11-17T07:18:49.502Z,17.17
2023-11-17T07:21:17.240Z,18.23
2023-11-17T07:23:51.283Z,16.80
2023-11-17T07:26:19.231Z,20.07
2023-11-17T07:28:47.548Z,16.73
2023-11-17T07:31:19.069Z,20.83
2023-11-17T07:33:46.635Z,20.60
2023-11-17T07:36:19.757Z,19.23
2023-11-17T07:38:53.195Z,19.50
2023-11-17T07:41:20.853Z,19.50
2023-11-17T07:43:48.450Z,21.00
2023-11-17T07:46:15.987Z,20.53
2023-11-17T07:48:53.834Z,20.80
2023-11-17T07:51:24.790Z,21.77
2023-11-17T07:53:52.984Z,16.93
2023-11-17T07:56:21.026Z,20.53
2023-11-17T07:58:50.105Z,18.03
2023-11-17T08:01:18.983Z,18.90
2023-11-17T08:03:46.869Z,15.70
2023-11-17T08:06:14.992Z,17.20
2023-11-17T08:08:42.428Z,19.27
2023-11-17T08:11:10.498Z,23.10
2023-11-17T08:13:38.828Z,24.77
2023-11-17T08:16:07.587Z,20.50
2023-11-17T08:18:35.110Z,18.00
2023-11-17T08:21:04.603Z,17.53
2023-11-17T08:23:32.279Z,17.83
2023-11-17T08:26:00.813Z,16.27
2023-11-17T08:28:29.521Z,18.60
2023-11-17T08:30:59.478Z,14.83
2023-11-17T08:33:29.134Z,17.07
2023-11-17T08:35:58.461Z,14.43
2023-11-17T08:38:26.641Z,15.20
2023-11-17T08:40:56.463Z,16.97
2023-11-17T08:43:26.277Z,15.93
2023-11-17T08:45:54.193Z,13.73
2023-11-17T08:48:21.865Z,18.00
2023-11-17T08:50:49.298Z,15.57
2023-11-17T08:53:17.774Z,15.87
2023-11-17T08:55:45.844Z,15.67
2023-11-17T08:58:13.468Z,13.90
2023-11-17T09:00:42.270Z,15.67
2023-11-17T09:03:10.926Z,17.53
2023-11-17T09:05:39.111Z,17.67
2023-11-17T09:08:08.435Z,15.47
2023-11-17T09:10:35.998Z,16.93
2023-11-17T09:13:06.070Z,15.63
2023-11-17T09:15:36.215Z,17.23
2023-11-17T09:18:03.679Z,17.47
2023-11-17T09:20:31.308Z,13.90
2023-11-17T09:22:58.869Z,14.97
2023-11-17T09:25:26.494Z,18.17
2023-11-17T09:27:57.794Z,15.60
2023-11-17T09:30:26.481Z,13.47
2023-11-17T09:32:58.413Z,14.57
2023-11-17T09:35:28.178Z,17.17
2023-11-17T09:37:57.973Z,16.13
2023-11-17T09:40:30.679Z,19.57
2023-11-17T09:43:00.024Z,16.40
2023-11-17T09:45:31.213Z,17.40
2023-11-17T09:48:02.412Z,18.07
2023-11-17T09:50:31.564Z,19.27
2023-11-17T09:53:03.047Z,19.20
2023-11-17T09:55:32.608Z,16.60
2023-11-17T09:58:04.613Z,16.37
2023-11-17T10:00:34.478Z,17.17
2023-11-17T10:03:05.197Z,19.57
2023-11-17T10:05:37.287Z,18.13
2023-11-17T10:08:08.631Z,21.50
2023-11-17T10:10:43.613Z,16.07
2023-11-17T10:13:19.612Z,16.37
2023-11-17T10:15:56.560Z,18.83
2023-11-17T10:18:27.152Z,15.70
2023-11-17T10:20:55.648Z,17.03
2023-11-17T10:23:23.427Z,20.40
2023-11-17T10:25:57.680Z,16.13
2023-11-17T10:28:27.794Z,15.23
2023-11-17T10:31:01.707Z,15.93
2023-11-17T10:33:31.792Z,16.10
2023-11-17T10:36:10.432Z,17.70
2023-11-17T10:38:43.646Z,17.17
2023-11-17T10:41:15.456Z,18.73
2023-11-17T10:43:53.252Z,14.00
2023-11-17T10:46:27.717Z,13.87
2023-11-17T10:49:00.956Z,12.20
2023-11-17T10:51:30.079Z,11.23
2023-11-17T10:54:05.298Z,16.10
2023-11-17T10:56:37.227Z,15.63
2023-11-17T10:59:06.374Z,17.90
2023-11-17T11:01:37.361Z,15.50
2023-11-17T11:04:11.479Z,13.90
2023-11-17T11:06:40.068Z,16.20
2023-11-17T11:09:07.789Z,17.70
2023-11-17T11:11:35.626Z,16.77
2023-11-17T11:14:06.038Z,17.87
2023-11-17T11:16:34.425Z,12.17
2023-11-17T11:19:03.385Z,11.73
2023-11-17T11:21:34.747Z,17.87
2023-11-17T11:24:06.194Z,11.90
2023-11-17T11:26:33.948Z,17.00
2023-11-17T11:29:02.655Z,16.20
2023-11-17T11:31:32.234Z,18.30
2023-11-17T11:34:02.510Z,12.13
2023-11-17T11:36:30.091Z,9.50
2023-11-17T11:38:57.573Z,5.47
2023-11-17T11:41:25.638Z,6.67
2023-11-17T11:43:53.715Z,7.63
2023-11-17T11:46:25.226Z,4.77
2023-11-17T11:49:01.898Z,6.83
2023-11-17T11:51:32.934Z,7.43
2023-11-17T11:54:07.365Z,6.20
2023-11-17T11:56:37.184Z,7.17
2023-11-17T11:59:06.879Z,7.73
2023-11-17T12:01:36.211Z,6.67
2023-11-17T12:04:08.793Z,6.80
2023-11-17T12:06:39.662Z,4.60
2023-11-17T12:09:17.981Z,5.17
2023-11-17T12:11:46.701Z,5.63
2023-11-17T12:14:17.756Z,4.70
2023-11-17T12:16:56.417Z,5.83
2023-11-17T12:19:28.722Z,6.00
2023-11-17T12:22:01.014Z,5.07
2023-11-17T12:24:30.270Z,6.00
2023-11-17T12:26:59.227Z,5.57
2023-11-17T12:29:32.768Z,9.43
2023-11-17T12:32:04.606Z,7.70
2023-11-17T12:34:33.225Z,9.33
2023-11-17T12:37:03.878Z,9.03
2023-11-17T12:39:42.002Z,7.00
2023-11-17T12:42:22.009Z,11.00
2023-11-17T12:44:49.698Z,7.20
2023-11-17T12:47:25.644Z,7.37
2023-11-17T12:49:58.316Z,7.07
2023-11-17T12:52:26.562Z,5.93
2023-11-17T12:55:08.212Z,6.20
2023-11-17T12:57:36.897Z,7.80
2023-11-17T13:00:14.263Z,6.50
2023-11-17T13:02:42.568Z,9.03
2023-11-17T13:05:12.469Z,8.73
2023-11-17T13:07:40.641Z,7.40
2023-11-17T13:10:12.484Z,9.67
2023-11-17T13:12:40.911Z,7.20
2023-11-17T13:15:12.283Z,7.17
2023-11-17T13:17:40.047Z,7.70
2023-11-17T13:20:15.243Z,7.83
2023-11-17T13:22:48.330Z,10.20
2023-11-17T13:25:16.099Z,8.47
2023-11-17T13:27:47.752Z,8.67
2023-11-17T13:30:15.960Z,8.13
2023-11-17T13:32:57.210Z,7.30
2023-11-17T13:35:30.063Z,8.30
2023-11-17T13:38:04.982Z,6.80
2023-11-17T13:40:35.313Z,6.10
2023-11-17T13:43:11.449Z,8.63
2023-11-17T13:45:40.737Z,8.87
2023-11-17T13:48:13.616Z,6.90
2023-11-17T13:50:52.726Z,7.77
2023-11-17T13:53:23.399Z,8.03
2023-11-17T13:55:54.456Z,7.47
2023-11-17T13:58:22.258Z,4.80
2023-11-17T14:00:50.552Z,6.87
2023-11-17T14:03:18.248Z,8.37
2023-11-17T14:05:46.844Z,3.43
2023-11-17T14:08:14.486Z,2.30
2023-11-17T14:10:42.928Z,4.17
2023-11-17T14:13:11.570Z,4.27
2023-11-17T14:15:48.310Z,4.73
2023-11-17T14:18:23.298Z,2.70
2023-11-17T14:20:51.068Z,2.17
2023-11-17T14:23:18.772Z,4.47
2023-11-17T14:25:46.850Z,3.83
2023-11-17T14:28:31.283Z,2.77
2023-11-17T14:31:05.332Z,1.97
2023-11-17T14:33:36.646Z,2.27
2023-11-17T14:36:07.496Z,3.20
2023-11-17T14:38:35.157Z,3.03
2023-11-17T14:41:02.885Z,3.10
2023-11-17T14:43:30.586Z,2.70
2023-11-17T14:45:58.377Z,3.83
2023-11-17T14:48:26.666Z,3.83
2023-11-17T14:50:55.862Z,2.30
2023-11-17T14:53:25.767Z,2.37
2023-11-17T14:55:54.604Z,3.10
2023-11-17T14:58:22.543Z,6.70
2023-11-17T15:00:51.924Z,2.87
2023-11-17T15:03:20.095Z,3.03
2023-11-17T15:05:48.959Z,2.63
2023-11-17T15:08:16.496Z,4.30
2023-11-17T15:10:44.887Z,3.07
2023-11-17T15:13:13.949Z,4.97
2023-11-17T15:15:43.345Z,2.97
2023-11-17T15:18:13.686Z,4.70
2023-11-17T15:20:41.774Z,3.30
2023-11-17T15:23:10.519Z,3.07
2023-11-17T15:25:38.676Z,3.07
2023-11-17T15:28:25.058Z,4.50
2023-11-17T15:30:56.091Z,3.60
2023-11-17T15:33:24.528Z,7.27
2023-11-17T15:35:52.318Z,6.40
2023-11-17T15:38:23.752Z,4.90
2023-11-17T15:40:51.680Z,8.90
2023-11-17T15:43:19.701Z,9.40
2023-11-17T15:45:47.947Z,12.17
2023-11-17T15:48:16.029Z,12.70
2023-11-17T15:50:44.005Z,11.20
2023-11-17T15:53:11.884Z,11.30
2023-11-17T15:55:39.956Z,3.80
2023-11-17T15:58:10.056Z,7.50
2023-11-17T16:00:39.288Z,7.80
2023-11-17T16:03:07.883Z,5.67
2023-11-17T16:05:36.868Z,6.30
2023-11-17T16:08:10.236Z,4.43
2023-11-17T16:10:39.776Z,5.47
2023-11-17T16:13:08.541Z,3.40
2023-11-17T16:15:37.203Z,5.03
2023-11-17T16:18:06.241Z,4.63
2023-11-17T16:20:34.765Z,4.30
2023-11-17T16:23:02.951Z,4.83
2023-11-17T16:25:32.891Z,5.90
2023-11-17T16:28:04.909Z,4.10
2023-11-17T16:30:33.561Z,4.67
2023-11-17T16:33:02.430Z,5.00
2023-11-17T16:35:30.946Z,3.90
2023-11-17T16:37:58.684Z,5.33
2023-11-17T16:40:29.451Z,4.40
2023-11-17T16:43:03.220Z,4.90
2023-11-17T16:45:35.336Z,4.43
2023-11-17T16:48:05.251Z,7.40
2023-11-17T16:50:43.730Z,4.60
2023-11-17T16:53:12.761Z,4.17
2023-11-17T16:55:41.170Z,5.03
2023-11-17T16:58:10.576Z,3.80
2023-11-17T17:00:41.026Z,4.20
2023-11-17T17:03:09.612Z,4.83
2023-11-17T17:05:38.468Z,5.97
2023-11-17T17:08:08.826Z,5.67
2023-11-17T17:10:38.635Z,5.10
2023-11-17T17:13:06.376Z,6.43
2023-11-17T17:15:36.432Z,6.23
2023-11-17T17:18:09.737Z,4.43
2023-11-17T17:20:40.450Z,4.43
2023-11-17T17:23:14.021Z,4.63
2023-11-17T17:25:42.817Z,5.20
2023-11-17T17:28:16.158Z,5.10
2023-11-17T17:30:44.371Z,5.10
2023-11-17T17:33:12.815Z,5.63
2023-11-17T17:35:46.966Z,4.73
2023-11-17T17:38:16.050Z,4.60
2023-11-17T17:40:44.390Z,8.00
2023-11-17T17:43:14.202Z,6.60
2023-11-17T17:45:45.450Z,6.70
2023-11-17T17:48:14.879Z,6.13
2023-11-17T17:50:42.737Z,6.07
2023-11-17T17:53:10.411Z,6.37
2023-11-17T17:55:38.318Z,5.60
2023-11-17T17:58:08.930Z,5.77
2023-11-17T18:00:38.434Z,6.17
2023-11-17T18:03:06.846Z,6.70
2023-11-17T18:05:36.080Z,7.30
2023-11-17T18:08:04.007Z,7.90
2023-11-17T18:10:33.299Z,8.83
2023-11-17T18:13:02.468Z,8.10
2023-11-17T18:15:30.199Z,7.07
2023-11-17T18:17:59.511Z,7.47
2023-11-17T18:20:28.796Z,7.47
2023-11-17T18:22:57.171Z,8.00
2023-11-17T18:25:25.178Z,11.83
2023-11-17T18:27:56.322Z,9.27
2023-11-17T18:30:25.032Z,8.50
2023-11-17T18:32:53.333Z,11.17
2023-11-17T18:35:24.807Z,11.87
2023-11-17T18:37:53.300Z,9.97
2023-11-17T18:40:29.964Z,11.37
2023-11-17T18:42:59.240Z,12.27
2023-11-17T18:45:29.532Z,9.13
2023-11-17T18:47:59.890Z,8.00
2023-11-17T18:50:29.583Z,9.17
2023-11-17T18:52:58.906Z,7.30
2023-11-17T18:55:27.380Z,7.70
2023-11-17T18:57:55.215Z,8.30
2023-11-17T19:00:23.320Z,9.00
2023-11-17T19:02:54.258Z,10.73
2023-11-17T19:05:23.129Z,9.63
2023-11-17T19:07:52.226Z,8.87
2023-11-17T19:10:25.939Z,8.90
2023-11-17T19:12:54.493Z,11.63
2023-11-17T19:15:25.029Z,9.17
2023-11-17T19:17:52.763Z,8.73
2023-11-17T19:20:23.988Z,10.27
2023-11-17T19:22:52.123Z,8.47
2023-11-17T19:25:20.170Z,9.40
2023-11-17T19:27:48.093Z,8.27
2023-11-17T19:30:17.054Z,10.77
2023-11-17T19:32:51.236Z,8.70
2023-11-17T19:35:25.698Z,10.10
2023-11-17T19:37:53.556Z,11.60
2023-11-17T19:40:22.596Z,7.47
2023-11-17T19:42:50.591Z,8.97
2023-11-17T19:45:21.992Z,7.90
2023-11-17T19:47:51.242Z,8.90
2023-11-17T19:50:20.417Z,8.90
2023-11-17T19:52:50.880Z,8.73
2023-11-17T19:55:39.213Z,8.20
2023-11-17T19:58:30.730Z,9.23
2023-11-17T20:01:05.820Z,9.27
2023-11-17T20:03:35.941Z,10.30
2023-11-17T20:06:20.005Z,8.93
2023-11-17T20:08:47.664Z,9.53
2023-11-17T20:11:45.676Z,10.20
2023-11-17T20:17:44.797Z,10.80
2023-11-17T20:20:21.960Z,11.30
2023-11-17T20:22:52.333Z,11.50
2023-11-17T20:25:24.550Z,12.67
2023-11-17T20:27:53.353Z,12.17
2023-11-17T20:30:21.859Z,10.57
2023-11-17T20:32:51.482Z,13.97
2023-11-17T20:35:20.486Z,12.13
2023-11-17T20:37:48.899Z,13.77
2023-11-17T20:40:16.503Z,13.10
2023-11-17T20:42:45.930Z,10.77
2023-11-17T20:45:17.445Z,11.63
2023-11-17T20:47:48.360Z,12.30
2023-11-17T20:50:17.552Z,12.67
2023-11-17T20:52:46.492Z,12.33
2023-11-17T20:55:14.992Z,12.10
2023-11-17T20:57:44.881Z,11.27
2023-11-17T21:00:21.408Z,11.87
2023-11-17T21:02:53.603Z,9.97
2023-11-17T21:05:22.874Z,12.47
2023-11-17T21:07:52.715Z,10.90
2023-11-17T21:10:23.318Z,12.20
2023-11-17T21:12:54.291Z,12.10
2023-11-17T21:15:23.578Z,10.03
2023-11-17T21:17:54.381Z,11.20
2023-11-17T21:20:22.368Z,10.87
2023-11-17T21:22:50.786Z,10.97
2023-11-17T21:25:20.193Z,11.43
2023-11-17T21:27:50.100Z,10.90
2023-11-17T21:30:18.379Z,10.97
2023-11-17T21:32:47.001Z,11.93
2023-11-17T21:35:15.246Z,11.47
2023-11-17T21:37:43.648Z,13.53
2023-11-17T21:40:14.805Z,11.07
2023-11-17T21:42:47.093Z,12.50
2023-11-17T21:45:22.622Z,11.53
2023-11-17T21:47:55.938Z,12.40
2023-11-17T21:50:25.337Z,12.13
2023-11-17T21:52:56.530Z,12.40
2023-11-17T21:55:24.235Z,11.57
2023-11-17T21:57:52.480Z,13.77
2023-11-17T22:00:20.922Z,12.40
2023-11-17T22:02:50.077Z,14.60
2023-11-17T22:05:19.756Z,14.83
2023-11-17T22:07:49.004Z,11.47
2023-11-17T22:10:17.282Z,10.10
2023-11-17T22:12:50.084Z,9.73
2023-11-17T22:15:19.852Z,11.23
2023-11-17T22:17:48.211Z,12.10
2023-11-17T22:20:19.068Z,11.73
2023-11-17T22:22:50.277Z,13.47
2023-11-17T22:25:22.818Z,16.43
2023-11-17T22:27:53.051Z,11.67
2023-11-17T22:30:25.275Z,12.13
2023-11-17T22:32:55.778Z,13.10
2023-11-17T22:35:24.882Z,12.77
2023-11-17T22:37:54.644Z,14.20
2023-11-17T22:40:23.837Z,13.67
2023-11-17T22:42:53.116Z,11.93
2023-11-17T22:45:21.109Z,12.73
2023-11-17T22:47:49.609Z,12.97
2023-11-17T22:50:20.400Z,13.13
2023-11-17T22:52:52.487Z,12.60
2023-11-17T22:55:21.468Z,12.23
2023-11-17T22:57:50.215Z,12.83
2023-11-17T23:00:42.356Z,13.20
2023-11-17T23:03:10.947Z,13.10
2023-11-17T23:05:43.364Z,14.83
2023-11-17T23:08:13.474Z,11.43
2023-11-17T23:10:42.360Z,13.13
2023-11-17T23:13:12.762Z,14.27
2023-11-17T23:15:40.654Z,13.50
2023-11-17T23:18:08.480Z,13.20
2023-11-17T23:20:37.457Z,13.20
2023-11-17T23:23:05.027Z,13.10
2023-11-17T23:25:37.664Z,14.00
2023-11-17T23:28:06.792Z,14.30
2023-11-17T23:30:36.162Z,15.03
2023-11-17T23:33:08.886Z,13.53
2023-11-17T23:35:37.009Z,14.37
2023-11-17T23:38:05.021Z,14.27
2023-11-17T23:40:32.901Z,13.47
2023-11-17T23:43:01.964Z,13.77
2023-11-17T23:45:30.857Z,13.83
2023-11-17T23:47:58.724Z,13.67
2023-11-17T23:50:26.752Z,14.87
2023-11-17T23:52:54.868Z,14.17
2023-11-17T23:55:22.511Z,13.80
2023-11-17T23:57:50.354Z,14.50
